Time;durP1;ratioP1;P1;durP2;ratioP2;P2;SDS_P1;SDS_P2;PMS_P1;PMS_P2;Temp;Humidity;BMP_temperature;BMP_pressure;BME280_temperature;BME280_humidity;BME280_pressure;Samples;Min_cycle;Max_cycle;Signal;HPM_P1;HPM_P2
2022/07/13 00:01:44;;;;;;;8.27;6.45;;;;;;;22.27;72.62;102114.78;5072282;28;20119;-36
2022/07/13 00:04:10;;;;;;;8.07;5.93;;;;;;;22.07;72.86;102104.59;5072473;28;20056;-36
2022/07/13 00:06:35;;;;;;;8.20;6.07;;;;;;;22.09;71.42;102101.56;5073034;28;20194;-36
2022/07/13 00:09:00;;;;;;;6.72;5.93;;;;;;;22.16;71.91;102107.66;5072652;28;20020;-37
2022/07/13 00:11:25;;;;;;;8.85;5.82;;;;;;;22.18;71.45;102099.94;5073390;28;20020;-37
2022/07/13 00:13:51;;;;;;;8.63;6.20;;;;;;;22.14;71.53;102090.56;5072330;28;20029;-36
2022/07/13 00:16:16;;;;;;;7.38;6.10;;;;;;;22.10;71.04;102093.00;5072599;28;20082;-37
2022/07/13 00:18:41;;;;;;;6.35;5.65;;;;;;;22.13;71.51;102086.16;5072284;28;20090;-37
2022/07/13 00:21:07;;;;;;;9.48;6.78;;;;;;;22.14;71.85;102087.00;5073166;28;20033;-37
2022/07/13 00:23:32;;;;;;;9.77;7.55;;;;;;;22.14;71.06;102087.81;5072404;28;20052;-37
2022/07/13 00:25:57;;;;;;;9.45;6.80;;;;;;;22.05;72.14;102082.00;5072625;28;20031;-37
2022/07/13 00:28:23;;;;;;;10.50;6.82;;;;;;;22.02;71.42;102088.09;5072805;28;20031;-36
2022/07/13 00:30:48;;;;;;;8.00;7.25;;;;;;;21.98;72.08;102078.72;5072086;28;20033;-36
2022/07/13 00:33:13;;;;;;;6.68;6.07;;;;;;;21.95;72.59;102078.44;5072865;28;20032;-37
2022/07/13 00:35:39;;;;;;;7.30;6.32;;;;;;;21.93;72.76;102058.63;5072841;28;20033;-37
2022/07/13 00:38:04;;;;;;;6.60;5.88;;;;;;;21.95;72.66;102064.69;5072815;28;20025;-37
2022/07/13 00:40:29;;;;;;;8.90;7.22;;;;;;;21.81;72.29;102054.25;5072269;28;20037;-37
2022/07/13 00:42:57;;;;;;;8.25;6.97;;;;;;;21.93;72.17;102056.72;5071989;28;20032;-37
2022/07/13 00:45:22;;;;;;;7.88;7.00;;;;;;;21.87;72.21;102054.25;5071931;28;20107;-37
2022/07/13 00:47:49;;;;;;;10.60;6.95;;;;;;;21.82;72.38;102055.06;5072768;28;20161;-37
2022/07/13 00:50:14;;;;;;;9.43;7.00;;;;;;;21.82;71.77;102060.59;5072391;28;20131;-37
2022/07/13 00:52:41;;;;;;;7.32;6.63;;;;;;;21.76;71.21;102048.72;5072828;28;20182;-37
2022/07/13 00:55:08;;;;;;;6.95;6.35;;;;;;;21.75;73.08;102030.56;5072136;28;20036;-37
2022/07/13 00:57:35;;;;;;;7.10;6.28;;;;;;;21.79;71.01;102026.16;5072736;28;20025;-37
2022/07/13 01:00:07;;;;;;;7.32;6.70;;;;;;;21.80;72.67;102030.56;5071801;28;20485;-37
2022/07/13 01:02:32;;;;;;;8.75;6.90;;;;;;;21.74;71.70;102039.94;5072114;28;20024;-37
2022/07/13 01:05:00;;;;;;;8.38;6.80;;;;;;;21.76;72.91;102026.72;5072285;28;20122;-37
2022/07/13 01:07:25;;;;;;;7.63;6.90;;;;;;;21.74;72.57;102015.16;5072289;28;20461;-37
2022/07/13 01:09:50;;;;;;;9.98;6.97;;;;;;;21.82;71.70;102027.53;5071890;28;20034;-37
2022/07/13 01:12:16;;;;;;;6.75;6.13;;;;;;;21.84;71.72;102028.09;5072606;28;20423;-37
2022/07/13 01:14:42;;;;;;;8.30;6.43;;;;;;;21.75;72.66;102022.31;5074620;28;20477;-36
2022/07/13 01:17:08;;;;;;;6.85;6.15;;;;;;;21.77;71.98;102028.38;5075461;28;20483;-36
2022/07/13 01:19:34;;;;;;;8.40;6.85;;;;;;;21.67;71.03;102014.63;5075688;28;20028;-36
2022/07/13 01:22:01;;;;;;;7.78;7.03;;;;;;;21.67;71.32;102017.38;5075929;28;20393;-36
2022/07/13 01:24:30;;;;;;;7.95;7.18;;;;;;;21.66;71.63;102029.47;5075434;28;20032;-36
2022/07/13 01:26:56;;;;;;;7.20;6.50;;;;;;;21.65;71.03;102030.56;5075914;28;20032;-36
2022/07/13 01:29:22;;;;;;;8.13;6.70;;;;;;;21.68;71.49;102026.47;5076192;28;20338;-36
2022/07/13 01:31:47;;;;;;;7.20;6.50;;;;;;;21.63;71.98;102020.97;5075284;28;20028;-36
2022/07/13 01:34:12;;;;;;;7.53;6.68;;;;;;;21.66;72.05;102032.22;5075266;28;20028;-36
2022/07/13 01:36:40;;;;;;;7.72;6.78;;;;;;;21.60;71.28;102023.16;5075244;28;20050;-36
2022/07/13 01:39:06;;;;;;;7.63;6.22;;;;;;;21.68;73.09;102029.22;5074936;28;20384;-36
2022/07/13 01:41:32;;;;;;;7.15;6.45;;;;;;;21.55;72.42;102008.56;5075148;28;20033;-36
2022/07/13 01:43:58;;;;;;;7.15;6.55;;;;;;;21.56;72.27;102010.22;5074828;28;20376;-36
2022/07/13 01:46:26;;;;;;;7.50;6.80;;;;;;;21.51;72.31;102001.97;5074865;28;20499;-36
2022/07/13 01:48:54;;;;;;;8.90;6.82;;;;;;;21.60;71.81;102000.31;5075077;28;20025;-36
2022/07/13 01:51:19;;;;;;;7.40;6.28;;;;;;;21.62;72.31;102000.03;5075291;28;20044;-37
2022/07/13 01:53:45;;;;;;;7.97;6.85;;;;;;;21.51;72.10;102000.03;5074971;28;20024;-37
2022/07/13 01:56:10;;;;;;;7.25;6.55;;;;;;;21.55;71.79;102017.66;5075579;28;20100;-37
2022/07/13 01:58:36;;;;;;;7.82;6.18;;;;;;;21.58;71.41;102019.03;5074821;28;20108;-37
2022/07/13 02:01:01;;;;;;;7.43;6.72;;;;;;;21.50;71.99;102012.16;5075248;28;20032;-37
2022/07/13 02:03:30;;;;;;;7.15;5.88;;;;;;;21.58;73.02;102010.78;5074920;28;20071;-37
2022/07/13 02:05:56;;;;;;;7.32;6.45;;;;;;;21.49;73.41;102009.69;5074859;28;20491;-37
2022/07/13 02:08:22;;;;;;;7.63;6.47;;;;;;;21.51;72.38;102012.97;5073998;28;20500;-36
2022/07/13 02:10:47;;;;;;;7.07;6.20;;;;;;;21.48;72.07;102003.38;5074542;28;20032;-37
2022/07/13 02:13:13;;;;;;;6.95;6.35;;;;;;;21.50;71.82;102001.16;5074259;28;20056;-37
2022/07/13 02:15:40;;;;;;;6.32;5.72;;;;;;;21.50;71.25;101992.06;5074381;28;20021;-37
2022/07/13 02:18:06;;;;;;;10.32;6.72;;;;;;;21.46;73.00;101994.53;5074369;28;20024;-37
2022/07/13 02:20:33;;;;;;;8.35;6.13;;;;;;;21.44;70.45;101985.75;5074396;28;20439;-37
2022/07/13 02:22:58;;;;;;;6.72;5.90;;;;;;;21.44;70.17;101991.25;5074538;28;20389;-37
2022/07/13 02:25:24;;;;;;;7.35;5.45;;;;;;;21.42;70.47;101976.94;5073755;28;20028;-37
2022/07/13 02:27:49;;;;;;;6.85;5.45;;;;;;;21.46;69.57;101991.78;5074754;28;20071;-37
2022/07/13 02:30:15;;;;;;;5.65;5.13;;;;;;;21.46;70.47;101983.53;5073911;28;20418;-37
2022/07/13 02:32:42;;;;;;;5.78;4.70;;;;;;;21.50;69.56;101979.13;5074551;28;20037;-37
2022/07/13 02:35:08;;;;;;;5.25;4.75;;;;;;;21.46;69.38;101968.94;5074022;28;20028;-37
2022/07/13 02:37:34;;;;;;;6.18;5.10;;;;;;;21.51;69.07;101963.44;5074964;28;20111;-37
2022/07/13 02:39:59;;;;;;;6.40;5.07;;;;;;;21.59;68.31;101957.38;5073894;28;20107;-37
2022/07/13 02:42:25;;;;;;;5.95;4.53;;;;;;;21.48;67.44;101959.34;5074539;28;20032;-37
2022/07/13 02:44:51;;;;;;;6.65;4.43;;;;;;;21.50;67.14;101962.63;5073494;28;20021;-36
2022/07/13 02:47:16;;;;;;;5.20;4.25;;;;;;;21.53;67.66;101951.06;5074089;28;20036;-37
2022/07/13 02:49:42;;;;;;;5.32;4.10;;;;;;;21.56;67.28;101949.66;5073419;28;20418;-37
2022/07/13 02:52:07;;;;;;;5.43;4.07;;;;;;;21.49;67.51;101949.16;5074139;28;20037;-37
2022/07/13 02:54:33;;;;;;;5.28;4.57;;;;;;;21.48;65.63;101955.75;5073597;28;20433;-37
2022/07/13 02:56:58;;;;;;;6.35;4.00;;;;;;;21.53;65.42;101956.56;5074078;28;20043;-37
2022/07/13 02:59:24;;;;;;;4.35;3.92;;;;;;;21.55;65.61;101965.38;5073433;28;20034;-37
2022/07/13 03:01:49;;;;;;;7.53;3.90;;;;;;;21.59;65.39;101960.13;5074317;28;20029;-37
2022/07/13 03:04:14;;;;;;;4.63;3.35;;;;;;;21.60;65.45;101965.34;5072156;28;20117;-37
2022/07/13 03:06:40;;;;;;;5.43;3.17;;;;;;;21.54;65.76;101958.22;5073662;28;20040;-37
2022/07/13 03:09:05;;;;;;;4.00;3.45;;;;;;;21.54;64.64;101965.66;5073304;28;20465;-37
2022/07/13 03:11:30;;;;;;;3.38;2.70;;;;;;;21.55;65.77;101959.03;5073786;28;20028;-37
2022/07/13 03:13:56;;;;;;;3.78;3.10;;;;;;;21.45;65.94;101957.13;5073267;28;20114;-37
2022/07/13 03:16:21;;;;;;;4.43;2.92;;;;;;;21.50;64.57;101950.78;5073724;28;20325;-37
2022/07/13 03:18:46;;;;;;;4.95;3.15;;;;;;;21.45;63.91;101951.63;5073238;28;20028;-37
2022/07/13 03:21:12;;;;;;;5.93;2.75;;;;;;;21.51;63.59;101953.25;5073738;28;20405;-37
2022/07/13 03:23:37;;;;;;;3.22;2.55;;;;;;;21.56;63.50;101957.94;5073826;28;20024;-37
2022/07/13 03:26:03;;;;;;;6.55;2.83;;;;;;;21.48;63.38;101936.50;5072799;28;20434;-37
2022/07/13 03:28:28;;;;;;;5.03;2.65;;;;;;;21.60;63.54;101950.78;5073378;28;20025;-37
2022/07/13 03:30:54;;;;;;;3.35;2.50;;;;;;;21.49;63.54;101943.66;5073488;28;20416;-37
2022/07/13 03:33:19;;;;;;;3.58;2.70;;;;;;;21.45;63.75;101937.88;5072756;28;20036;-37
2022/07/13 03:35:44;;;;;;;4.30;2.45;;;;;;;21.57;63.63;101943.09;5072501;28;20078;-37
2022/07/13 03:38:10;;;;;;;4.03;2.45;;;;;;;21.54;63.83;101938.13;5073423;28;20463;-37
2022/07/13 03:40:35;;;;;;;3.05;2.40;;;;;;;21.60;62.77;101945.25;5072847;28;20428;-36
2022/07/13 03:43:00;;;;;;;2.25;1.90;;;;;;;21.55;64.08;101948.84;5073117;28;20098;-36
2022/07/13 03:45:25;;;;;;;4.88;2.28;;;;;;;21.57;63.27;101941.16;5072562;28;20029;-36
2022/07/13 03:47:51;;;;;;;5.88;2.33;;;;;;;21.53;63.55;101928.22;5072718;28;20055;-37
2022/07/13 03:50:17;;;;;;;3.03;2.47;;;;;;;21.51;62.94;101927.66;5072377;28;20094;-36
2022/07/13 03:52:42;;;;;;;3.88;2.20;;;;;;;21.57;63.30;101932.09;5072674;28;20056;-36
2022/07/13 03:55:08;;;;;;;4.53;2.50;;;;;;;21.60;63.22;101940.59;5072636;28;20036;-36
2022/07/13 03:57:34;;;;;;;3.72;2.40;;;;;;;21.62;62.79;101943.06;5073197;28;20028;-36
2022/07/13 03:59:59;;;;;;;4.47;2.28;;;;;;;21.68;62.30;101939.19;5072741;28;20029;-36
2022/07/13 04:02:25;;;;;;;4.03;2.13;;;;;;;21.56;62.59;101917.47;5072741;28;20071;-36
2022/07/13 04:04:50;;;;;;;2.97;2.10;;;;;;;21.67;61.20;101931.19;5072672;28;20465;-37
2022/07/13 04:07:16;;;;;;;5.40;2.15;;;;;;;21.75;61.35;101947.16;5072618;28;20024;-37
2022/07/13 04:09:41;;;;;;;3.75;2.10;;;;;;;21.67;61.39;101928.44;5072495;28;20032;-37
2022/07/13 04:12:06;;;;;;;2.85;2.40;;;;;;;21.74;61.45;101935.31;5072618;28;20024;-37
2022/07/13 04:14:32;;;;;;;2.58;1.98;;;;;;;21.66;61.96;101927.63;5072178;28;20033;-37
2022/07/13 04:16:57;;;;;;;4.93;2.38;;;;;;;21.73;61.99;101928.19;5072540;28;20024;-37
2022/07/13 04:19:22;;;;;;;4.95;2.17;;;;;;;21.65;61.62;101914.97;5072721;28;20029;-36
2022/07/13 04:21:48;;;;;;;2.65;2.17;;;;;;;21.67;62.23;101920.19;5073258;28;20052;-36
2022/07/13 04:24:13;;;;;;;3.92;2.10;;;;;;;21.69;61.84;101918.00;5072377;28;20502;-37
2022/07/13 04:26:38;;;;;;;5.22;2.30;;;;;;;21.65;61.98;101919.66;5072493;28;20043;-37
2022/07/13 04:29:04;;;;;;;4.47;2.20;;;;;;;21.65;61.90;101920.47;5072919;28;20032;-37
2022/07/13 04:31:29;;;;;;;4.00;2.22;;;;;;;21.66;61.85;101913.03;5072569;28;20342;-37
2022/07/13 04:33:54;;;;;;;8.98;2.22;;;;;;;21.67;62.10;101921.03;5072020;28;20025;-37
2022/07/13 04:36:19;;;;;;;4.82;2.40;;;;;;;21.71;62.02;101915.78;5072347;28;20029;-36
2022/07/13 04:38:45;;;;;;;6.07;2.15;;;;;;;21.71;62.16;101919.34;5072348;28;20056;-36
2022/07/13 04:41:11;;;;;;;4.15;2.55;;;;;;;21.67;61.79;101923.78;5072691;28;20117;-37
2022/07/13 04:43:36;;;;;;;3.47;2.33;;;;;;;21.67;61.96;101904.53;5072447;28;20082;-38
2022/07/13 04:46:02;;;;;;;2.97;2.38;;;;;;;21.74;61.41;101918.81;5072742;28;20119;-38
2022/07/13 04:48:28;;;;;;;3.22;1.95;;;;;;;21.74;61.90;101916.06;5074135;28;20035;-36
2022/07/13 04:50:53;;;;;;;5.18;2.30;;;;;;;21.77;61.41;101912.75;5076948;28;20044;-37
2022/07/13 04:53:18;;;;;;;4.25;2.40;;;;;;;21.80;61.41;101912.16;5076053;28;20078;-37
2022/07/13 04:55:44;;;;;;;4.35;2.40;;;;;;;21.80;60.98;101909.41;5076416;28;20029;-37
2022/07/13 04:58:10;;;;;;;4.22;1.90;;;;;;;21.84;61.30;101916.00;5076150;28;20083;-36
2022/07/13 05:00:35;;;;;;;4.60;2.47;;;;;;;21.88;61.42;101905.28;5075805;28;20028;-36
2022/07/13 05:03:01;;;;;;;2.50;1.80;;;;;;;21.92;61.98;101911.06;5076073;28;20036;-36
2022/07/13 05:05:31;;;;;;;3.78;2.00;;;;;;;21.81;62.01;101899.22;5075768;28;20024;-36
2022/07/13 05:07:56;;;;;;;4.72;2.30;;;;;;;21.92;61.68;101905.53;5074368;28;20036;-36
2022/07/13 05:10:22;;;;;;;3.88;2.20;;;;;;;21.95;61.18;101903.03;5075644;28;20039;-36
2022/07/13 05:12:47;;;;;;;3.95;2.38;;;;;;;21.96;61.31;101904.69;5075667;28;20380;-37
2022/07/13 05:15:12;;;;;;;4.75;2.03;;;;;;;21.99;61.15;101900.53;5075926;28;20055;-37
2022/07/13 05:17:38;;;;;;;3.72;2.28;;;;;;;21.99;60.84;101904.13;5075892;28;20059;-36
2022/07/13 05:20:04;;;;;;;3.60;2.00;;;;;;;22.02;60.87;101902.75;5075482;28;20055;-37
2022/07/13 05:22:30;;;;;;;2.80;2.03;;;;;;;22.05;60.83;101908.47;5076039;28;20090;-37
2022/07/13 05:24:56;;;;;;;4.13;2.10;;;;;;;21.99;60.81;101882.09;5075886;28;20020;-37
2022/07/13 05:27:21;;;;;;;3.92;2.28;;;;;;;22.06;61.12;101901.06;5075808;28;20104;-37
2022/07/13 05:29:47;;;;;;;3.35;2.00;;;;;;;22.10;60.71;101907.63;5075706;28;20025;-37
2022/07/13 05:32:12;;;;;;;3.22;2.05;;;;;;;22.15;60.72;101907.66;5075545;28;20029;-37
2022/07/13 05:34:37;;;;;;;5.70;2.15;;;;;;;22.16;61.08;101903.00;5075010;28;20055;-37
2022/07/13 05:37:03;;;;;;;5.53;2.28;;;;;;;22.20;60.47;101913.13;5075075;28;20178;-37
2022/07/13 05:39:29;;;;;;;5.55;2.10;;;;;;;22.12;61.49;101907.41;5075372;28;20142;-37
2022/07/13 05:41:54;;;;;;;3.92;2.03;;;;;;;22.23;61.21;101928.28;5075193;28;20377;-37
2022/07/13 05:44:19;;;;;;;8.07;2.00;;;;;;;22.22;61.24;101919.19;5074819;28;20021;-37
2022/07/13 05:46:45;;;;;;;4.68;2.10;;;;;;;22.21;61.58;101916.72;5075091;28;20024;-37
2022/07/13 05:49:10;;;;;;;4.78;2.22;;;;;;;22.20;61.39;101915.88;5073669;28;20039;-37
2022/07/13 05:51:35;;;;;;;4.65;2.00;;;;;;;22.16;61.32;101923.09;5075263;28;20048;-37
2022/07/13 05:54:01;;;;;;;6.07;2.13;;;;;;;22.18;61.20;101933.81;5074964;28;20024;-37
2022/07/13 05:56:26;;;;;;;4.72;2.22;;;;;;;22.18;61.40;101940.16;5073908;28;20044;-37
2022/07/13 05:58:52;;;;;;;4.97;2.10;;;;;;;22.22;61.60;101940.41;5074373;28;20028;-37
2022/07/13 06:01:18;;;;;;;3.67;2.17;;;;;;;22.22;61.40;101924.72;5075463;28;20032;-37
2022/07/13 06:03:43;;;;;;;3.22;1.90;;;;;;;22.34;61.48;101933.44;5074844;28;20024;-37
2022/07/13 06:06:08;;;;;;;3.08;2.15;;;;;;;22.44;61.62;101929.81;5074981;28;20038;-37
2022/07/13 06:08:34;;;;;;;3.33;2.20;;;;;;;22.44;61.68;101927.06;5074700;28;20387;-37
2022/07/13 06:10:59;;;;;;;4.63;2.40;;;;;;;22.51;62.19;101935.03;5074560;28;20112;-36
2022/07/13 06:13:24;;;;;;;4.43;2.47;;;;;;;22.55;62.06;101922.31;5075373;28;20074;-36
2022/07/13 06:15:50;;;;;;;5.03;2.30;;;;;;;22.57;61.46;101931.13;5074779;28;20036;-36
2022/07/13 06:18:15;;;;;;;3.20;2.33;;;;;;;22.67;61.91;101930.22;5074487;28;20029;-36
2022/07/13 06:20:40;;;;;;;5.75;3.17;;;;;;;22.71;61.51;101926.63;5074297;28;20036;-37
2022/07/13 06:23:09;;;;;;;4.43;2.30;;;;;;;22.85;61.91;101935.06;5074628;28;20085;-37
2022/07/13 06:25:34;;;;;;;4.55;2.40;;;;;;;22.95;61.28;101929.50;5074353;28;20028;-37
2022/07/13 06:28:00;;;;;;;4.03;2.40;;;;;;;22.90;62.83;101914.94;5074661;28;20104;-37
2022/07/13 06:30:25;;;;;;;3.83;2.45;;;;;;;23.06;61.00;101928.28;5074273;28;20036;-37
2022/07/13 06:32:50;;;;;;;4.18;2.70;;;;;;;23.16;60.98;101921.03;5075054;28;20029;-37
2022/07/13 06:35:15;;;;;;;3.83;2.50;;;;;;;23.16;61.25;101916.34;5074124;28;20048;-37
2022/07/13 06:37:41;;;;;;;7.00;2.60;;;;;;;23.20;61.14;101922.94;5074086;28;20524;-37
2022/07/13 06:40:07;;;;;;;5.10;2.70;;;;;;;23.25;60.81;101920.13;5072310;28;20048;-37
2022/07/13 06:42:32;;;;;;;3.72;2.42;;;;;;;23.28;62.29;101922.31;5074428;28;20064;-37
2022/07/13 06:44:57;;;;;;;4.05;2.22;;;;;;;23.31;61.08;101913.44;5072838;28;20021;-37
2022/07/13 06:47:22;;;;;;;5.95;2.90;;;;;;;23.46;61.22;101914.41;5074376;28;20421;-37
2022/07/13 06:49:48;;;;;;;3.05;2.20;;;;;;;23.56;60.63;101922.56;5073484;28;20469;-37
2022/07/13 06:52:13;;;;;;;5.72;2.58;;;;;;;23.60;60.57;101915.34;5073792;28;20033;-37
2022/07/13 06:54:38;;;;;;;4.32;2.67;;;;;;;23.69;60.78;101916.38;5074449;28;20021;-37
2022/07/13 06:57:04;;;;;;;4.00;2.55;;;;;;;23.64;60.12;101921.97;5073980;28;20036;-37
2022/07/13 06:59:29;;;;;;;7.45;2.78;;;;;;;23.56;60.57;101909.59;5073317;28;20538;-37
2022/07/13 07:01:55;;;;;;;5.20;2.63;;;;;;;23.61;60.21;101917.00;5072602;28;20040;-37
2022/07/13 07:04:20;;;;;;;5.57;2.50;;;;;;;23.71;61.15;101922.44;5073905;28;20025;-37
2022/07/13 07:06:45;;;;;;;6.10;3.08;;;;;;;23.95;61.00;101921.59;5074005;28;20028;-37
2022/07/13 07:09:11;;;;;;;7.95;3.28;;;;;;;24.09;60.97;101928.88;5073370;28;20021;-37
2022/07/13 07:11:36;;;;;;;5.45;2.22;;;;;;;24.22;61.50;101923.75;5073041;28;20028;-37
2022/07/13 07:14:01;;;;;;;7.00;3.00;;;;;;;24.21;60.60;101924.88;5073803;28;20029;-37
2022/07/13 07:16:27;;;;;;;5.88;2.78;;;;;;;24.25;60.68;101926.72;5073071;28;20410;-37
2022/07/13 07:18:52;;;;;;;5.35;3.10;;;;;;;24.24;59.80;101924.28;5073266;28;20031;-37
2022/07/13 07:21:17;;;;;;;6.15;2.80;;;;;;;24.12;60.88;101919.19;5073587;28;20025;-37
2022/07/13 07:23:42;;;;;;;5.03;2.80;;;;;;;24.08;60.01;101910.66;5073638;28;20054;-37
2022/07/13 07:26:08;;;;;;;5.15;2.50;;;;;;;24.12;60.98;101919.19;5073529;28;20063;-37
2022/07/13 07:28:33;;;;;;;3.65;2.55;;;;;;;24.21;60.90;101906.34;5073379;28;20060;-37
2022/07/13 07:30:58;;;;;;;4.85;2.75;;;;;;;24.36;60.42;101911.69;5073330;28;20476;-37
2022/07/13 07:33:24;;;;;;;6.57;2.60;;;;;;;24.42;60.45;101911.63;5073387;28;20381;-37
2022/07/13 07:35:49;;;;;;;5.60;2.53;;;;;;;24.42;60.15;101909.69;5073610;28;20112;-36
2022/07/13 07:38:15;;;;;;;5.88;2.45;;;;;;;24.49;60.34;101912.06;5072983;28;20033;-36
2022/07/13 07:40:40;;;;;;;10.30;2.95;;;;;;;24.49;60.39;101912.88;5073153;28;20035;-37
2022/07/13 07:43:05;;;;;;;4.15;2.53;;;;;;;24.57;61.37;101897.56;5073548;28;20040;-37
2022/07/13 07:45:30;;;;;;;5.40;2.75;;;;;;;24.77;60.13;101901.94;5072666;28;20051;-37
2022/07/13 07:47:56;;;;;;;4.28;2.40;;;;;;;24.84;59.77;101906.00;5073172;28;20028;-36
2022/07/13 07:50:21;;;;;;;5.25;2.67;;;;;;;24.86;59.34;101903.72;5072885;28;20048;-36
2022/07/13 07:52:46;;;;;;;6.57;2.58;;;;;;;24.92;59.78;101904.47;5072984;28;20484;-36
2022/07/13 07:55:12;;;;;;;8.10;2.53;;;;;;;24.98;59.13;101910.72;5072497;28;20039;-36
2022/07/13 07:57:47;;;;;;;10.60;2.83;;;;;;;24.96;59.20;101907.44;5072876;28;20024;-36
2022/07/13 08:00:14;;;;;;;9.13;2.92;;;;;;;24.97;59.14;101915.44;5072677;28;20040;-36
2022/07/13 08:02:40;;;;;;;7.20;2.40;;;;;;;25.02;59.47;101909.00;5072941;28;20499;-36
2022/07/13 08:05:06;;;;;;;8.48;2.25;;;;;;;25.08;59.21;101918.88;5072489;28;20028;-37
2022/07/13 08:07:32;;;;;;;5.03;2.50;;;;;;;25.19;58.98;101911.25;5072704;28;20077;-37
2022/07/13 08:09:57;;;;;;;4.32;2.20;;;;;;;25.14;58.99;101888.06;5072697;28;20040;-37
2022/07/13 08:12:23;;;;;;;5.55;2.30;;;;;;;25.38;59.71;101914.78;5073736;28;20037;-37
2022/07/13 08:14:48;;;;;;;6.10;2.58;;;;;;;25.35;58.76;101923.69;5072656;28;20059;-37
2022/07/13 08:17:13;;;;;;;6.35;3.20;;;;;;;25.25;58.47;101916.38;5072734;28;20425;-37
2022/07/13 08:19:38;;;;;;;5.82;2.60;;;;;;;25.18;59.11;101913.16;5072655;28;20033;-37
2022/07/13 08:22:04;;;;;;;4.85;2.50;;;;;;;25.18;59.19;101915.94;5073968;28;20032;-37
2022/07/13 08:24:29;;;;;;;4.25;2.53;;;;;;;25.19;59.53;101916.78;5076711;28;20083;-37
2022/07/13 08:26:55;;;;;;;3.97;2.47;;;;;;;25.35;58.71;101931.97;5076470;28;20021;-37
2022/07/13 08:29:20;;;;;;;4.70;2.65;;;;;;;25.50;58.66;101928.94;5076505;28;20031;-37
2022/07/13 08:31:46;;;;;;;4.80;2.15;;;;;;;25.65;58.11;101922.28;5076338;28;20028;-37
2022/07/13 08:39:39;;;;;;;3.40;2.25;;;;;;;25.74;56.83;101919.63;5076243;28;20489;-37
2022/07/13 08:42:04;;;;;;;4.38;2.50;;;;;;;25.78;57.65;101923.44;5076616;28;20072;-37
2022/07/13 08:44:31;;;;;;;8.77;2.67;;;;;;;25.71;57.23;101921.03;5074768;28;20051;-37
2022/07/13 08:46:57;;;;;;;5.28;2.22;;;;;;;25.77;56.72;101919.00;5076765;28;20099;-37
2022/07/13 08:49:25;;;;;;;5.60;2.40;;;;;;;25.73;56.64;101932.66;5076065;28;20060;-37
2022/07/13 08:51:51;;;;;;;4.93;2.35;;;;;;;25.67;55.67;101922.81;5077360;28;20045;-37
2022/07/13 08:54:16;;;;;;;4.90;1.92;;;;;;;25.65;55.71;101922.28;5076069;28;20507;-37
2022/07/13 08:56:42;;;;;;;4.63;1.98;;;;;;;25.72;56.46;101931.00;5076429;28;20127;-37
2022/07/13 08:59:07;;;;;;;6.15;2.00;;;;;;;25.63;55.51;101916.22;5075789;28;20484;-37
2022/07/13 09:01:33;;;;;;;4.22;2.00;;;;;;;25.72;55.97;101927.41;5075948;28;20036;-37
2022/07/13 09:03:59;;;;;;;4.35;2.10;;;;;;;25.72;55.77;101925.47;5075625;28;20040;-37
2022/07/13 09:06:47;;;;;;;5.90;2.30;;;;;;;25.83;55.63;101921.38;5076013;28;20366;-37
2022/07/13 09:09:35;;;;;;;3.55;2.30;;;;;;;26.06;56.33;101933.41;5075803;28;20025;-37
2022/07/13 09:12:15;;;;;;;3.55;2.20;;;;;;;26.20;56.30;101925.84;5076055;28;20028;-37
2022/07/13 09:14:41;;;;;;;2.83;2.10;;;;;;;26.19;55.31;101924.22;5076059;28;20021;-37
2022/07/13 09:17:06;;;;;;;3.55;2.47;;;;;;;26.35;56.93;101930.28;5076179;28;20086;-37
2022/07/13 09:19:39;;;;;;;5.45;2.15;;;;;;;26.39;55.40;101931.25;5075591;28;20060;-37
2022/07/13 09:22:12;;;;;;;5.07;2.03;;;;;;;26.46;55.49;101921.75;5075917;28;20359;-37
2022/07/13 09:24:46;;;;;;;4.70;2.30;;;;;;;26.54;55.27;101929.31;5076237;28;20021;-37
2022/07/13 09:27:12;;;;;;;3.78;2.47;;;;;;;26.63;54.43;101941.28;5075726;28;20025;-36
2022/07/13 09:29:37;;;;;;;6.18;2.47;;;;;;;26.72;55.22;101942.19;5075353;28;20207;-37
2022/07/13 09:32:07;;;;;;;4.70;2.25;;;;;;;26.74;54.32;101947.41;5075121;28;20099;-37
2022/07/13 09:34:46;;;;;;;4.55;2.10;;;;;;;26.77;53.91;101941.25;5074517;28;20138;-37
2022/07/13 09:37:13;;;;;;;5.95;2.53;;;;;;;26.73;52.57;101940.22;5075651;28;20438;-37
2022/07/13 09:39:55;;;;;;;4.45;2.28;;;;;;;26.76;53.23;101942.38;5075311;28;20149;-37
2022/07/13 09:42:27;;;;;;;4.47;2.55;;;;;;;26.65;52.67;101925.19;5075945;28;20423;-37
2022/07/13 09:47:53;;;;;;;4.75;2.03;;;;;;;26.67;51.74;101945.09;5075584;28;20040;-38
2022/07/13 09:50:23;;;;;;;4.55;1.90;;;;;;;26.59;51.64;101948.59;5074856;28;20492;-37
2022/07/13 09:52:53;;;;;;;4.28;2.03;;;;;;;26.47;51.82;101951.09;5074187;28;20108;-37
2022/07/13 09:55:20;;;;;;;5.47;1.77;;;;;;;26.29;53.61;101945.34;5075044;28;20051;-38
2022/07/13 09:57:56;;;;;;;3.45;1.73;;;;;;;26.38;54.46;101945.44;5074923;28;20025;-38
2022/07/13 10:00:22;;;;;;;5.10;2.05;;;;;;;26.33;53.47;101945.56;5075605;28;20039;-37
2022/07/13 10:02:49;;;;;;;3.33;2.10;;;;;;;26.41;52.33;101948.41;5075321;28;20023;-37
2022/07/13 10:05:18;;;;;;;4.15;1.90;;;;;;;26.64;51.75;101945.69;5074277;28;20056;-38
2022/07/13 10:07:44;;;;;;;5.55;2.20;;;;;;;26.96;51.78;101936.34;5075553;28;20314;-37
2022/07/13 10:10:15;;;;;;;3.53;1.80;;;;;;;27.17;52.10;101931.94;5074962;28;20479;-37
2022/07/13 10:12:41;;;;;;;4.47;1.90;;;;;;;27.35;51.66;101949.53;5074430;28;20086;-38
2022/07/13 10:15:07;;;;;;;2.55;1.90;;;;;;;27.48;51.26;101952.53;5075116;28;20021;-37
2022/07/13 10:17:33;;;;;;;2.85;1.95;;;;;;;27.65;50.61;101947.03;5075075;28;20025;-38
2022/07/13 10:20:04;;;;;;;4.28;2.30;;;;;;;27.69;50.14;101937.75;5074543;28;20040;-37
2022/07/13 10:22:34;;;;;;;5.25;1.77;;;;;;;27.77;49.41;101940.91;5074482;28;20025;-35
2022/07/13 10:25:00;;;;;;;4.47;1.70;;;;;;;27.87;49.25;101937.88;5074433;28;20093;-37
2022/07/13 10:27:26;;;;;;;5.93;1.83;;;;;;;27.70;49.00;101939.38;5074327;28;20123;-38
2022/07/13 10:29:54;;;;;;;2.47;1.42;;;;;;;27.70;48.72;101946.91;5074183;28;20031;-37
2022/07/13 10:32:25;;;;;;;2.50;1.45;;;;;;;27.58;49.68;101933.63;5074814;28;20102;-37
2022/07/13 10:34:58;;;;;;;5.90;1.70;;;;;;;27.52;49.46;101946.00;5074717;28;20025;-37
2022/07/13 10:37:24;;;;;;;4.50;1.40;;;;;;;27.65;49.71;101941.50;5073891;28;20020;-37
2022/07/13 10:40:12;;;;;;;3.08;1.33;;;;;;;28.11;49.26;101951.31;5074582;28;20078;-38
2022/07/13 10:42:53;;;;;;;3.67;1.73;;;;;;;28.17;47.72;101961.16;5074564;28;20115;-37
2022/07/13 10:48:06;;;;;;;3.45;1.90;;;;;;;28.16;46.73;101957.56;5074634;28;20044;-37
2022/07/13 10:50:44;;;;;;;2.92;1.40;;;;;;;27.99;46.63;101960.28;5074053;28;20059;-37
2022/07/13 10:53:10;;;;;;;5.53;1.50;;;;;;;27.85;47.30;101965.94;5073843;28;20032;-37
2022/07/13 10:55:35;;;;;;;4.90;1.55;;;;;;;27.92;46.87;101963.53;5073784;28;20028;-37
2022/07/13 10:58:40;;;;;;;3.63;1.05;;;;;;;28.01;47.33;101976.63;5074496;28;20051;-38
2022/07/13 11:01:30;;;;;;;3.17;1.25;;;;;;;28.05;46.43;101966.50;5073133;28;20101;-38
2022/07/13 11:03:56;;;;;;;3.83;1.60;;;;;;;28.21;45.32;101962.16;5073593;28;20329;-37
2022/07/13 11:06:26;;;;;;;2.83;1.10;;;;;;;28.57;44.10;101967.47;5073870;28;20111;-37
2022/07/13 11:09:07;;;;;;;2.65;1.25;;;;;;;28.72;44.72;101968.94;5073748;28;20044;-36
2022/07/13 11:11:32;;;;;;;4.15;1.30;;;;;;;28.65;43.26;101971.41;5073688;28;20036;-37
2022/07/13 11:13:58;;;;;;;2.45;1.17;;;;;;;28.67;42.61;101953.22;5073447;28;20358;-37
2022/07/13 11:16:46;;;;;;;4.82;1.10;;;;;;;29.02;43.72;101966.34;5073863;28;20024;-37
2022/07/13 11:19:12;;;;;;;2.65;1.10;;;;;;;28.91;43.31;101965.84;5073300;28;20488;-37
2022/07/13 11:22:03;;;;;;;3.67;1.30;;;;;;;28.91;43.67;101975.00;5073881;28;20037;-37
2022/07/13 11:27:21;;;;;;;2.47;1.50;;;;;;;28.51;41.18;101973.53;5073596;28;20075;-38
2022/07/13 11:29:55;;;;;;;1.75;0.90;;;;;;;28.58;43.08;101969.09;5073477;28;20032;-37
2022/07/13 11:32:21;;;;;;;2.85;1.20;;;;;;;28.70;42.07;101972.06;5072743;28;20032;-37
2022/07/13 11:34:47;;;;;;;4.32;1.30;;;;;;;28.81;40.94;101966.97;5073180;28;20024;-38
2022/07/13 11:37:13;;;;;;;1.77;1.17;;;;;;;28.87;41.46;101942.56;5073874;28;20036;-37